RYR66 EKVG-BIKF
Flight info
| Callsign | RYR66 |
|---|---|
| Flight time | N/A |
| Altitude | 36000 |
| Route | MY DCT ING DCT NASBU NASBU5N |
| Aircraft | B738/M-SDE2E3FGHIRWXY/LB1 |
Departure
| Time | 2026-05-07 13:25 |
|---|---|
| Airport | Vágar Airport (EKVG) |
Arrival
| Time | N/A |
|---|---|
| Airport | Keflavik International Airport (BIKF) |
| Time | Latitude | Longitude | Altitude | Speed | Heading |
|---|---|---|---|---|---|
| 2026-05-07 13:11 | 62.06591 | -7.27981 | 263 ft | 0 kts | 18° |
| 2026-05-07 13:20 | 62.06586 | -7.27986 | 263 ft | 2 kts | 319° |
| 2026-05-07 13:20 | 62.06576 | -7.27958 | 262 ft | 2 kts | 289° |
| 2026-05-07 13:20 | 62.06572 | -7.27925 | 262 ft | 2 kts | 277° |
| 2026-05-07 13:20 | 62.06572 | -7.27913 | 262 ft | 0 kts | 274° |
| 2026-05-07 13:21 | 62.06572 | -7.27914 | 262 ft | 1 kts | 274° |
| 2026-05-07 13:21 | 62.06572 | -7.27956 | 262 ft | 6 kts | 269° |
| 2026-05-07 13:22 | 62.06571 | -7.28031 | 263 ft | 9 kts | 262° |
| 2026-05-07 13:22 | 62.06509 | -7.28114 | 263 ft | 14 kts | 202° |
| 2026-05-07 13:22 | 62.06499 | -7.28311 | 263 ft | 18 kts | 298° |
| 2026-05-07 13:22 | 62.06565 | -7.28574 | 266 ft | 22 kts | 298° |
| 2026-05-07 13:23 | 62.06640 | -7.28875 | 273 ft | 24 kts | 298° |
| 2026-05-07 13:23 | 62.06691 | -7.29130 | 274 ft | 16 kts | 273° |
| 2026-05-07 13:23 | 62.06721 | -7.29210 | 272 ft | 4 kts | 19° |
| 2026-05-07 13:23 | 62.06718 | -7.29152 | 272 ft | 6 kts | 135° |
| 2026-05-07 13:24 | 62.06693 | -7.29082 | 272 ft | 4 kts | 120° |
| 2026-05-07 13:24 | 62.06549 | -7.28509 | 266 ft | 88 kts | 117° |
| 2026-05-07 13:24 | 62.06133 | -7.26847 | 259 ft | 163 kts | 119° |
| 2026-05-07 13:24 | 62.05439 | -7.24607 | 704 ft | 192 kts | 128° |
| 2026-05-07 13:25 | 62.04499 | -7.22617 | 1692 ft | 192 kts | 142° |
| 2026-05-07 13:25 | 62.03500 | -7.20708 | 2666 ft | 196 kts | 136° |
| 2026-05-07 13:25 | 62.02897 | -7.18177 | 3728 ft | 192 kts | 99° |
| 2026-05-07 13:25 | 62.02621 | -7.15250 | 4388 ft | 214 kts | 106° |
| 2026-05-07 13:26 | 62.02110 | -7.12049 | 4630 ft | 241 kts | 112° |
| 2026-05-07 13:26 | 62.01422 | -7.08676 | 5128 ft | 254 kts | 116° |
| 2026-05-07 13:26 | 62.00615 | -7.05290 | 5777 ft | 258 kts | 125° |
| 2026-05-07 13:26 | 61.99265 | -7.02844 | 6451 ft | 259 kts | 158° |
| 2026-05-07 13:27 | 61.97472 | -7.02258 | 6948 ft | 272 kts | 188° |
| 2026-05-07 13:27 | 61.95723 | -7.03690 | 7732 ft | 278 kts | 217° |
| 2026-05-07 13:27 | 61.94431 | -7.06747 | 8729 ft | 278 kts | 243° |
| 2026-05-07 13:27 | 61.93963 | -7.10713 | 9674 ft | 280 kts | 271° |
| 2026-05-07 13:28 | 61.94460 | -7.14706 | 10499 ft | 289 kts | 298° |
| 2026-05-07 13:28 | 61.95640 | -7.18397 | 10798 ft | 316 kts | 307° |
| 2026-05-07 13:28 | 61.97084 | -7.22189 | 11010 ft | 343 kts | 309° |
| 2026-05-07 13:28 | 61.98660 | -7.26227 | 11312 ft | 364 kts | 309° |
| 2026-05-07 13:29 | 62.00282 | -7.30443 | 11982 ft | 372 kts | 308° |
| 2026-05-07 13:29 | 62.01908 | -7.34758 | 12796 ft | 375 kts | 308° |
| 2026-05-07 13:29 | 62.02982 | -7.37648 | 13329 ft | 377 kts | 308° |
| 2026-05-07 13:29 | 62.05160 | -7.43572 | 14341 ft | 383 kts | 307° |
| 2026-05-07 13:30 | 62.06784 | -7.48022 | 15061 ft | 387 kts | 307° |
| 2026-05-07 13:30 | 62.08444 | -7.52581 | 15764 ft | 391 kts | 307° |
| 2026-05-07 13:30 | 62.10121 | -7.57197 | 16439 ft | 396 kts | 307° |
| 2026-05-07 13:30 | 62.11650 | -7.62108 | 17033 ft | 401 kts | 298° |
| 2026-05-07 13:31 | 62.12921 | -7.67423 | 17765 ft | 402 kts | 296° |
| 2026-05-07 13:31 | 62.14131 | -7.72827 | 18412 ft | 405 kts | 295° |
| 2026-05-07 13:31 | 62.15337 | -7.78308 | 18993 ft | 410 kts | 295° |
| 2026-05-07 13:31 | 62.16561 | -7.83857 | 19556 ft | 414 kts | 295° |
| 2026-05-07 13:32 | 62.17803 | -7.89440 | 20142 ft | 417 kts | 295° |
| 2026-05-07 13:32 | 62.19066 | -7.95068 | 20708 ft | 421 kts | 295° |
| 2026-05-07 13:32 | 62.20345 | -8.00735 | 21246 ft | 424 kts | 295° |
| 2026-05-07 13:32 | 62.21636 | -8.06438 | 21757 ft | 428 kts | 295° |
| 2026-05-07 13:33 | 62.22940 | -8.12200 | 22257 ft | 431 kts | 295° |
| 2026-05-07 13:33 | 62.24250 | -8.17997 | 22737 ft | 434 kts | 295° |
| 2026-05-07 13:33 | 62.25571 | -8.23852 | 23207 ft | 437 kts | 295° |
| 2026-05-07 13:33 | 62.26897 | -8.29745 | 23661 ft | 440 kts | 295° |
| 2026-05-07 13:34 | 62.28232 | -8.35692 | 24104 ft | 443 kts | 295° |
| 2026-05-07 13:34 | 62.30917 | -8.47712 | 24937 ft | 449 kts | 295° |
| 2026-05-07 13:34 | 62.32268 | -8.53791 | 25334 ft | 452 kts | 295° |
| 2026-05-07 13:35 | 62.33622 | -8.59898 | 25722 ft | 454 kts | 295° |
| 2026-05-07 13:35 | 62.34985 | -8.66061 | 26090 ft | 457 kts | 295° |
| 2026-05-07 13:35 | 62.36352 | -8.72264 | 26444 ft | 459 kts | 295° |
| 2026-05-07 13:35 | 62.37704 | -8.78413 | 26782 ft | 462 kts | 295° |
| 2026-05-07 13:36 | 62.39080 | -8.84692 | 27117 ft | 464 kts | 295° |
| 2026-05-07 13:36 | 62.40456 | -8.90992 | 27434 ft | 467 kts | 295° |
| 2026-05-07 13:36 | 62.41843 | -8.97358 | 27753 ft | 469 kts | 295° |
| 2026-05-07 13:36 | 62.43228 | -9.03733 | 28071 ft | 470 kts | 295° |
| 2026-05-07 13:37 | 62.44611 | -9.10124 | 28487 ft | 470 kts | 295° |
| 2026-05-07 13:37 | 62.45990 | -9.16509 | 28971 ft | 467 kts | 295° |
| 2026-05-07 13:37 | 62.47359 | -9.22873 | 29429 ft | 466 kts | 295° |
| 2026-05-07 13:37 | 62.48721 | -9.29220 | 29827 ft | 465 kts | 294° |
| 2026-05-07 13:38 | 62.50079 | -9.35567 | 30216 ft | 465 kts | 294° |
| 2026-05-07 13:38 | 62.51434 | -9.41919 | 30620 ft | 464 kts | 294° |
| 2026-05-07 13:38 | 62.52782 | -9.48262 | 31038 ft | 463 kts | 294° |
| 2026-05-07 13:38 | 62.54123 | -9.54589 | 31435 ft | 462 kts | 294° |
| 2026-05-07 13:39 | 62.55459 | -9.60909 | 31796 ft | 462 kts | 294° |
| 2026-05-07 13:39 | 62.56797 | -9.67258 | 32007 ft | 464 kts | 294° |
| 2026-05-07 13:39 | 62.58138 | -9.73644 | 31997 ft | 466 kts | 294° |
| 2026-05-07 13:40 | 62.60807 | -9.86409 | 31997 ft | 461 kts | 294° |
| 2026-05-07 13:40 | 62.63440 | -9.99084 | 32003 ft | 460 kts | 294° |
| 2026-05-07 13:41 | 62.66060 | -10.11770 | 32002 ft | 459 kts | 294° |
| 2026-05-07 13:41 | 62.68648 | -10.24375 | 32002 ft | 459 kts | 294° |
| 2026-05-07 13:42 | 62.71242 | -10.37094 | 32002 ft | 460 kts | 294° |
| 2026-05-07 13:42 | 62.73827 | -10.49844 | 32003 ft | 460 kts | 293° |
| 2026-05-07 13:43 | 62.76405 | -10.62639 | 32000 ft | 461 kts | 293° |
| 2026-05-07 13:43 | 62.78975 | -10.75476 | 32002 ft | 461 kts | 293° |
| 2026-05-07 13:44 | 62.81532 | -10.88325 | 32002 ft | 461 kts | 293° |
| 2026-05-07 13:44 | 62.84081 | -11.01219 | 32002 ft | 462 kts | 293° |
| 2026-05-07 13:45 | 62.86619 | -11.14137 | 31999 ft | 462 kts | 293° |
| 2026-05-07 13:45 | 62.89145 | -11.27078 | 32002 ft | 462 kts | 292° |
| 2026-05-07 13:46 | 62.91662 | -11.40058 | 32001 ft | 462 kts | 292° |
| 2026-05-07 13:46 | 62.94166 | -11.53052 | 32001 ft | 462 kts | 292° |
| 2026-05-07 13:47 | 62.96642 | -11.65986 | 32003 ft | 462 kts | 292° |
| 2026-05-07 13:47 | 62.99118 | -11.79003 | 32001 ft | 462 kts | 292° |
| 2026-05-07 13:48 | 63.01585 | -11.92058 | 32000 ft | 461 kts | 292° |
| 2026-05-07 13:48 | 63.04032 | -12.05092 | 32001 ft | 460 kts | 292° |
| 2026-05-07 13:49 | 63.06465 | -12.18136 | 32001 ft | 460 kts | 292° |
| 2026-05-07 13:49 | 63.08881 | -12.31177 | 32001 ft | 459 kts | 292° |
| 2026-05-07 13:50 | 63.11284 | -12.44234 | 32000 ft | 459 kts | 292° |
| 2026-05-07 13:50 | 63.13674 | -12.57308 | 32002 ft | 458 kts | 291° |
| 2026-05-07 13:51 | 63.16052 | -12.70402 | 32001 ft | 458 kts | 291° |
| 2026-05-07 13:51 | 63.18402 | -12.83433 | 32002 ft | 458 kts | 291° |
| 2026-05-07 13:52 | 63.20755 | -12.96567 | 32002 ft | 459 kts | 291° |
| 2026-05-07 13:52 | 63.21547 | -13.01007 | 32002 ft | 459 kts | 291° |